sensor_id;sensor_type;location;lat;lon;timestamp;pressure;altitude;pressure_sealevel;temperature;humidity
4273;BME280;63887;53.656;9.810;2023-04-01T00:01:32;99523.38;;;10.22;99.21
4273;BME280;63887;53.656;9.810;2023-04-01T00:03:59;99530.59;;;10.31;98.81
4273;BME280;63887;53.656;9.810;2023-04-01T00:06:27;99528.19;;;10.28;98.84
4273;BME280;63887;53.656;9.810;2023-04-01T00:08:55;99519.81;;;10.23;99.73
4273;BME280;63887;53.656;9.810;2023-04-01T00:11:21;99525.06;;;10.10;99.45
4273;BME280;63887;53.656;9.810;2023-04-01T00:13:48;99527.34;;;10.28;99.52
4273;BME280;63887;53.656;9.810;2023-04-01T00:16:14;99529.66;;;10.20;99.38
4273;BME280;63887;53.656;9.810;2023-04-01T00:18:41;99530.31;;;10.10;100.00
4273;BME280;63887;53.656;9.810;2023-04-01T00:21:07;99530.41;;;10.22;99.74
4273;BME280;63887;53.656;9.810;2023-04-01T00:23:34;99525.25;;;10.20;99.19
4273;BME280;63887;53.656;9.810;2023-04-01T00:26:02;99528.31;;;10.14;99.28
4273;BME280;63887;53.656;9.810;2023-04-01T00:28:30;99527.97;;;10.19;99.86
4273;BME280;63887;53.656;9.810;2023-04-01T00:30:56;99530.41;;;10.45;99.09
4273;BME280;63887;53.656;9.810;2023-04-01T00:33:23;99530.41;;;10.09;99.61
4273;BME280;63887;53.656;9.810;2023-04-01T00:35:49;99533.81;;;10.35;99.54
4273;BME280;63887;53.656;9.810;2023-04-01T00:38:16;99529.03;;;10.29;98.97
4273;BME280;63887;53.656;9.810;2023-04-01T00:40:45;99535.59;;;10.34;99.32
4273;BME280;63887;53.656;9.810;2023-04-01T00:43:15;99529.47;;;10.23;99.28
4273;BME280;63887;53.656;9.810;2023-04-01T00:45:44;99532.31;;;10.43;99.17
4273;BME280;63887;53.656;9.810;2023-04-01T00:48:13;99531.06;;;10.36;99.27
4273;BME280;63887;53.656;9.810;2023-04-01T00:50:44;99526.66;;;10.13;99.90
4273;BME280;63887;53.656;9.810;2023-04-01T00:53:12;99529.66;;;10.20;100.00
4273;BME280;63887;53.656;9.810;2023-04-01T00:55:43;99531.06;;;10.36;99.34
4273;BME280;63887;53.656;9.810;2023-04-01T00:58:15;99525.47;;;10.30;99.52
4273;BME280;63887;53.656;9.810;2023-04-01T01:00:45;99537.31;;;10.23;99.47
4273;BME280;63887;53.656;9.810;2023-04-01T01:03:12;99538.69;;;10.39;98.14
4273;BME280;63887;53.656;9.810;2023-04-01T01:08:43;99539.16;;;10.33;97.95
4273;BME280;63887;53.656;9.810;2023-04-01T01:11:15;99532.38;;;10.66;97.20
4273;BME280;63887;53.656;9.810;2023-04-01T01:13:53;99535.72;;;10.33;98.30
4273;BME280;63887;53.656;9.810;2023-04-01T01:16:25;99538.88;;;10.25;98.79
4273;BME280;63887;53.656;9.810;2023-04-01T01:18:59;99537.50;;;10.32;98.88
4273;BME280;63887;53.656;9.810;2023-04-01T01:21:38;99536.91;;;10.16;99.63
4273;BME280;63887;53.656;9.810;2023-04-01T01:24:33;99536.28;;;10.12;99.35
4273;BME280;63887;53.656;9.810;2023-04-01T01:27:08;99537.66;;;10.42;98.92
4273;BME280;63887;53.656;9.810;2023-04-01T01:30:08;99533.03;;;10.22;98.76
4273;BME280;63887;53.656;9.810;2023-04-01T01:33:08;99539.28;;;10.32;99.41
4273;BME280;63887;53.656;9.810;2023-04-01T01:35:43;99545.00;;;10.37;97.82
4273;BME280;63887;53.656;9.810;2023-04-01T01:38:15;99540.88;;;10.22;99.34
4273;BME280;63887;53.656;9.810;2023-04-01T01:40:45;99535.72;;;10.20;99.21
4273;BME280;63887;53.656;9.810;2023-04-01T01:43:16;99541.25;;;10.52;98.75
4273;BME280;63887;53.656;9.810;2023-04-01T01:45:47;99537.94;;;10.50;98.48
4273;BME280;63887;53.656;9.810;2023-04-01T01:48:15;99546.81;;;10.36;98.63
4273;BME280;63887;53.656;9.810;2023-04-01T01:50:45;99547.19;;;10.43;98.09
4273;BME280;63887;53.656;9.810;2023-04-01T01:53:12;99548.88;;;10.44;98.38
4273;BME280;63887;53.656;9.810;2023-04-01T01:55:41;99544.03;;;10.27;98.54
4273;BME280;63887;53.656;9.810;2023-04-01T01:58:11;99548.94;;;10.19;98.46
4273;BME280;63887;53.656;9.810;2023-04-01T02:00:41;99555.00;;;10.32;99.00
4273;BME280;63887;53.656;9.810;2023-04-01T02:03:10;99551.38;;;10.22;98.70
4273;BME280;63887;53.656;9.810;2023-04-01T02:05:39;99551.56;;;10.31;98.70
4273;BME280;63887;53.656;9.810;2023-04-01T02:08:09;99553.03;;;10.23;99.35
4273;BME280;63887;53.656;9.810;2023-04-01T02:10:41;99549.78;;;10.19;99.39
4273;BME280;63887;53.656;9.810;2023-04-01T02:13:14;99554.13;;;10.07;99.54
4273;BME280;63887;53.656;9.810;2023-04-01T02:15:46;99552.72;;;10.27;99.19
4273;BME280;63887;53.656;9.810;2023-04-01T02:18:15;99554.44;;;10.03;99.36
4273;BME280;63887;53.656;9.810;2023-04-01T02:20:42;99555.34;;;10.27;98.67
4273;BME280;63887;53.656;9.810;2023-04-01T02:23:12;99557.06;;;10.39;97.52
4273;BME280;63887;53.656;9.810;2023-04-01T02:25:41;99557.03;;;10.28;98.50
4273;BME280;63887;53.656;9.810;2023-04-01T02:28:09;99560.91;;;10.23;98.49
4273;BME280;63887;53.656;9.810;2023-04-01T02:30:38;99559.31;;;10.20;98.47
4273;BME280;63887;53.656;9.810;2023-04-01T02:33:06;99564.50;;;10.45;98.22
4273;BME280;63887;53.656;9.810;2023-04-01T02:35:33;99562.63;;;10.35;97.14
4273;BME280;63887;53.656;9.810;2023-04-01T02:38:00;99558.63;;;10.42;97.49
4273;BME280;63887;53.656;9.810;2023-04-01T02:40:28;99563.09;;;10.16;97.88
4273;BME280;63887;53.656;9.810;2023-04-01T02:42:55;99565.59;;;10.30;97.89
4273;BME280;63887;53.656;9.810;2023-04-01T02:45:21;99566.34;;;10.20;98.65
4273;BME280;63887;53.656;9.810;2023-04-01T02:47:48;99566.88;;;10.49;97.02
4273;BME280;63887;53.656;9.810;2023-04-01T02:50:14;99578.13;;;10.38;97.17
4273;BME280;63887;53.656;9.810;2023-04-01T02:52:40;99573.63;;;10.64;95.65
4273;BME280;63887;53.656;9.810;2023-04-01T02:55:08;99583.09;;;10.54;96.16
4273;BME280;63887;53.656;9.810;2023-04-01T02:57:36;99578.09;;;10.27;97.47
4273;BME280;63887;53.656;9.810;2023-04-01T03:00:03;99579.97;;;10.25;97.46
4273;BME280;63887;53.656;9.810;2023-04-01T03:02:29;99587.78;;;10.37;97.62
4273;BME280;63887;53.656;9.810;2023-04-01T03:04:56;99583.84;;;10.19;97.45
4273;BME280;63887;53.656;9.810;2023-04-01T03:07:22;99581.94;;;9.97;99.59
4273;BME280;63887;53.656;9.810;2023-04-01T03:09:49;99582.47;;;9.90;99.28
4273;BME280;63887;53.656;9.810;2023-04-01T03:12:15;99589.53;;;10.13;99.06
4273;BME280;63887;53.656;9.810;2023-04-01T03:14:43;99591.94;;;10.29;98.46
4273;BME280;63887;53.656;9.810;2023-04-01T03:17:09;99584.66;;;10.32;96.80
4273;BME280;63887;53.656;9.810;2023-04-01T03:19:36;99597.31;;;10.38;97.60
4273;BME280;63887;53.656;9.810;2023-04-01T03:22:02;99588.78;;;10.11;98.38
4273;BME280;63887;53.656;9.810;2023-04-01T03:24:29;99597.00;;;9.94;99.45
4273;BME280;63887;53.656;9.810;2023-04-01T03:26:55;99593.19;;;10.23;98.05
4273;BME280;63887;53.656;9.810;2023-04-01T03:29:21;99596.44;;;10.27;98.53
4273;BME280;63887;53.656;9.810;2023-04-01T03:31:49;99594.09;;;9.85;99.88
4273;BME280;63887;53.656;9.810;2023-04-01T03:34:16;99597.06;;;10.30;98.45
4273;BME280;63887;53.656;9.810;2023-04-01T03:36:42;99601.34;;;10.31;97.86
4273;BME280;63887;53.656;9.810;2023-04-01T03:39:08;99599.09;;;10.38;97.78
4273;BME280;63887;53.656;9.810;2023-04-01T03:41:35;99603.03;;;10.32;97.78
4273;BME280;63887;53.656;9.810;2023-04-01T03:44:02;99605.34;;;10.24;97.07
4273;BME280;63887;53.656;9.810;2023-04-01T03:46:29;99606.97;;;10.38;96.89
4273;BME280;63887;53.656;9.810;2023-04-01T03:48:56;99605.16;;;10.14;97.89
4273;BME280;63887;53.656;9.810;2023-04-01T03:51:23;99614.06;;;10.12;98.74
4273;BME280;63887;53.656;9.810;2023-04-01T03:53:49;99618.03;;;10.18;97.93
4273;BME280;63887;53.656;9.810;2023-04-01T03:56:16;99613.38;;;10.34;97.75
4273;BME280;63887;53.656;9.810;2023-04-01T03:58:42;99615.63;;;10.27;97.13
4273;BME280;63887;53.656;9.810;2023-04-01T04:01:16;99614.94;;;10.36;96.95
4273;BME280;63887;53.656;9.810;2023-04-01T04:03:43;99624.09;;;10.31;96.96
4273;BME280;63887;53.656;9.810;2023-04-01T04:06:13;99621.25;;;10.34;96.45
4273;BME280;63887;53.656;9.810;2023-04-01T04:08:40;99628.19;;;10.22;97.76
4273;BME280;63887;53.656;9.810;2023-04-01T04:11:06;99626.53;;;10.08;97.87
4273;BME280;63887;53.656;9.810;2023-04-01T04:13:33;99628.09;;;10.11;98.03
4273;BME280;63887;53.656;9.810;2023-04-01T04:16:01;99626.59;;;10.20;97.69
4273;BME280;63887;53.656;9.810;2023-04-01T04:18:28;99638.88;;;10.19;97.45
4273;BME280;63887;53.656;9.810;2023-04-01T04:20:54;99628.75;;;10.02;98.02
4273;BME280;63887;53.656;9.810;2023-04-01T04:23:23;99637.34;;;10.04;98.35
4273;BME280;63887;53.656;9.810;2023-04-01T04:25:54;99635.03;;;9.99;98.69
4273;BME280;63887;53.656;9.810;2023-04-01T04:28:20;99632.22;;;9.90;99.51
4273;BME280;63887;53.656;9.810;2023-04-01T04:30:47;99638.84;;;9.82;99.58
4273;BME280;63887;53.656;9.810;2023-04-01T04:33:13;99643.03;;;10.47;95.50
4273;BME280;63887;53.656;9.810;2023-04-01T04:35:40;99650.44;;;9.78;94.52
4273;BME280;63887;53.656;9.810;2023-04-01T04:38:06;99652.72;;;10.21;93.53
4273;BME280;63887;53.656;9.810;2023-04-01T04:40:35;99654.72;;;10.05;93.41
4273;BME280;63887;53.656;9.810;2023-04-01T04:43:02;99664.47;;;9.52;95.21
4273;BME280;63887;53.656;9.810;2023-04-01T04:45:28;99664.94;;;9.84;95.84
4273;BME280;63887;53.656;9.810;2023-04-01T04:47:55;99672.53;;;9.36;95.85
4273;BME280;63887;53.656;9.810;2023-04-01T04:50:22;99671.31;;;9.54;95.93
4273;BME280;63887;53.656;9.810;2023-04-01T04:52:50;99684.56;;;9.26;96.36
4273;BME280;63887;53.656;9.810;2023-04-01T04:55:17;99686.63;;;9.21;96.47
4273;BME280;63887;53.656;9.810;2023-04-01T04:57:44;99688.94;;;9.13;96.22
4273;BME280;63887;53.656;9.810;2023-04-01T05:00:11;99687.88;;;9.15;95.98
4273;BME280;63887;53.656;9.810;2023-04-01T05:02:38;99685.59;;;9.23;95.30
4273;BME280;63887;53.656;9.810;2023-04-01T05:05:05;99691.34;;;9.16;95.60
4273;BME280;63887;53.656;9.810;2023-04-01T05:07:32;99692.97;;;9.04;95.91
4273;BME280;63887;53.656;9.810;2023-04-01T05:09:59;99695.31;;;9.09;95.75
4273;BME280;63887;53.656;9.810;2023-04-01T05:12:26;99702.94;;;9.12;95.14
4273;BME280;63887;53.656;9.810;2023-04-01T05:14:53;99698.16;;;8.91;96.44
4273;BME280;63887;53.656;9.810;2023-04-01T05:17:20;99703.63;;;9.01;95.54
4273;BME280;63887;53.656;9.810;2023-04-01T05:19:46;99701.22;;;8.71;95.13
4273;BME280;63887;53.656;9.810;2023-04-01T05:22:13;99706.16;;;8.76;95.41
4273;BME280;63887;53.656;9.810;2023-04-01T05:24:39;99711.50;;;8.60;95.85
4273;BME280;63887;53.656;9.810;2023-04-01T05:27:06;99713.13;;;8.48;96.05
4273;BME280;63887;53.656;9.810;2023-04-01T05:29:32;99720.31;;;8.45;95.55
4273;BME280;63887;53.656;9.810;2023-04-01T05:32:01;99717.25;;;8.38;95.28
4273;BME280;63887;53.656;9.810;2023-04-01T05:34:27;99733.03;;;8.36;94.97
4273;BME280;63887;53.656;9.810;2023-04-01T05:36:54;99733.25;;;8.32;95.50
4273;BME280;63887;53.656;9.810;2023-04-01T05:39:20;99735.53;;;8.38;96.98
4273;BME280;63887;53.656;9.810;2023-04-01T05:41:47;99749.72;;;8.20;96.08
4273;BME280;63887;53.656;9.810;2023-04-01T05:44:13;99740.91;;;7.92;96.77
4273;BME280;63887;53.656;9.810;2023-04-01T05:46:40;99744.16;;;7.82;96.51
4273;BME280;63887;53.656;9.810;2023-04-01T05:49:08;99745.66;;;8.00;97.48
4273;BME280;63887;53.656;9.810;2023-04-01T05:51:34;99754.22;;;7.88;96.43
4273;BME280;63887;53.656;9.810;2023-04-01T05:54:01;99747.63;;;7.82;97.03
4273;BME280;63887;53.656;9.810;2023-04-01T05:56:27;99766.34;;;7.74;96.43
4273;BME280;63887;53.656;9.810;2023-04-01T05:58:54;99770.16;;;7.69;97.25
4273;BME280;63887;53.656;9.810;2023-04-01T06:01:20;99778.09;;;7.82;98.12
4273;BME280;63887;53.656;9.810;2023-04-01T06:03:47;99774.97;;;7.61;98.44
4273;BME280;63887;53.656;9.810;2023-04-01T06:06:18;99778.16;;;7.66;98.14
4273;BME280;63887;53.656;9.810;2023-04-01T06:08:46;99780.53;;;7.55;98.78
4273;BME280;63887;53.656;9.810;2023-04-01T06:11:21;99785.47;;;7.45;98.91
4273;BME280;63887;53.656;9.810;2023-04-01T06:13:59;99787.81;;;7.50;99.07
4273;BME280;63887;53.656;9.810;2023-04-01T06:16:39;99792.56;;;7.57;98.50
4273;BME280;63887;53.656;9.810;2023-04-01T06:19:23;99791.19;;;7.36;98.84
4273;BME280;63887;53.656;9.810;2023-04-01T06:24:59;99806.25;;;7.46;99.01
4273;BME280;63887;53.656;9.810;2023-04-01T06:27:45;99801.34;;;7.40;98.90
4273;BME280;63887;53.656;9.810;2023-04-01T06:30:33;99813.31;;;7.29;98.24
4273;BME280;63887;53.656;9.810;2023-04-01T06:33:11;99813.41;;;7.27;98.99
4273;BME280;63887;53.656;9.810;2023-04-01T06:35:56;99823.16;;;7.39;99.35
4273;BME280;63887;53.656;9.810;2023-04-01T06:38:37;99815.09;;;7.44;98.69
4273;BME280;63887;53.656;9.810;2023-04-01T06:41:19;99829.06;;;7.27;96.43
4273;BME280;63887;53.656;9.810;2023-04-01T06:43:58;99827.38;;;7.26;97.54
4273;BME280;63887;53.656;9.810;2023-04-01T06:46:35;99839.75;;;7.07;96.96
4273;BME280;63887;53.656;9.810;2023-04-01T06:49:24;99831.94;;;7.07;98.24
4273;BME280;63887;53.656;9.810;2023-04-01T06:52:00;99838.34;;;7.17;97.71
4273;BME280;63887;53.656;9.810;2023-04-01T06:54:34;99851.97;;;7.06;97.61
4273;BME280;63887;53.656;9.810;2023-04-01T06:57:08;99850.19;;;7.23;97.22
4273;BME280;63887;53.656;9.810;2023-04-01T06:59:40;99852.88;;;7.21;97.22
4273;BME280;63887;53.656;9.810;2023-04-01T07:02:19;99854.41;;;7.09;96.31
4273;BME280;63887;53.656;9.810;2023-04-01T07:04:51;99860.97;;;7.01;97.45
4273;BME280;63887;53.656;9.810;2023-04-01T07:07:27;99863.56;;;7.01;96.79
4273;BME280;63887;53.656;9.810;2023-04-01T07:09:58;99867.16;;;6.98;96.40
4273;BME280;63887;53.656;9.810;2023-04-01T07:12:32;99875.00;;;6.98;96.22
4273;BME280;63887;53.656;9.810;2023-04-01T07:15:05;99885.66;;;6.94;97.48
4273;BME280;63887;53.656;9.810;2023-04-01T07:17:39;99885.44;;;7.14;96.35
4273;BME280;63887;53.656;9.810;2023-04-01T07:20:12;99887.44;;;7.09;96.45
4273;BME280;63887;53.656;9.810;2023-04-01T07:22:43;99892.16;;;7.02;96.27
4273;BME280;63887;53.656;9.810;2023-04-01T07:25:14;99903.09;;;6.93;96.14
4273;BME280;63887;53.656;9.810;2023-04-01T07:27:42;99897.69;;;6.96;96.59
4273;BME280;63887;53.656;9.810;2023-04-01T07:30:14;99899.47;;;6.96;96.46
4273;BME280;63887;53.656;9.810;2023-04-01T07:32:44;99909.13;;;6.94;96.58
4273;BME280;63887;53.656;9.810;2023-04-01T07:35:21;99910.50;;;6.68;96.78
4273;BME280;63887;53.656;9.810;2023-04-01T07:38:09;99912.66;;;6.93;97.15
4273;BME280;63887;53.656;9.810;2023-04-01T07:40:46;99917.16;;;7.06;96.45
4273;BME280;63887;53.656;9.810;2023-04-01T07:43:25;99938.31;;;6.84;95.30
4273;BME280;63887;53.656;9.810;2023-04-01T07:46:03;99924.34;;;6.85;96.99
4273;BME280;63887;53.656;9.810;2023-04-01T07:48:39;99931.00;;;6.91;96.65
4273;BME280;63887;53.656;9.810;2023-04-01T07:51:11;99942.66;;;6.84;95.56
4273;BME280;63887;53.656;9.810;2023-04-01T07:53:44;99944.38;;;6.85;95.64
4273;BME280;63887;53.656;9.810;2023-04-01T07:56:16;99945.25;;;6.84;95.30
4273;BME280;63887;53.656;9.810;2023-04-01T07:58:54;99941.22;;;6.78;96.19
4273;BME280;63887;53.656;9.810;2023-04-01T08:01:30;99953.41;;;6.78;95.18
4273;BME280;63887;53.656;9.810;2023-04-01T08:04:12;99966.63;;;6.57;95.10
4273;BME280;63887;53.656;9.810;2023-04-01T08:06:45;99966.44;;;6.78;95.59
4273;BME280;63887;53.656;9.810;2023-04-01T08:09:20;99972.78;;;6.90;94.20
4273;BME280;63887;53.656;9.810;2023-04-01T08:12:02;99993.19;;;6.81;93.98
4273;BME280;63887;53.656;9.810;2023-04-01T08:14:37;99974.03;;;6.65;94.52
4273;BME280;63887;53.656;9.810;2023-04-01T08:17:13;99989.06;;;6.77;94.11
4273;BME280;63887;53.656;9.810;2023-04-01T08:19:56;99993.03;;;6.67;94.01
4273;BME280;63887;53.656;9.810;2023-04-01T08:22:32;99994.59;;;6.71;93.55
4273;BME280;63887;53.656;9.810;2023-04-01T08:25:03;99996.28;;;6.72;96.01
4273;BME280;63887;53.656;9.810;2023-04-01T08:27:37;99998.81;;;6.74;95.24
4273;BME280;63887;53.656;9.810;2023-04-01T08:30:16;100006.91;;;6.68;94.67
4273;BME280;63887;53.656;9.810;2023-04-01T08:32:47;100001.19;;;6.61;94.20
4273;BME280;63887;53.656;9.810;2023-04-01T08:35:20;100031.28;;;6.49;94.77
4273;BME280;63887;53.656;9.810;2023-04-01T08:37:52;100025.88;;;6.71;95.14
4273;BME280;63887;53.656;9.810;2023-04-01T08:40:37;100037.59;;;6.63;93.09
4273;BME280;63887;53.656;9.810;2023-04-01T08:43:12;100019.94;;;6.50;94.36
4273;BME280;63887;53.656;9.810;2023-04-01T08:45:51;100034.22;;;6.61;94.05
4273;BME280;63887;53.656;9.810;2023-04-01T08:48:36;100043.94;;;6.57;93.68
4273;BME280;63887;53.656;9.810;2023-04-01T08:51:15;100041.09;;;6.62;93.66
4273;BME280;63887;53.656;9.810;2023-04-01T08:53:58;100053.28;;;6.61;92.99
4273;BME280;63887;53.656;9.810;2023-04-01T08:56:34;100038.44;;;6.63;94.12
4273;BME280;63887;53.656;9.810;2023-04-01T08:59:29;100046.41;;;6.77;93.70
4273;BME280;63887;53.656;9.810;2023-04-01T09:02:25;100054.22;;;6.77;94.54
4273;BME280;63887;53.656;9.810;2023-04-01T09:05:17;100051.28;;;6.83;94.27
4273;BME280;63887;53.656;9.810;2023-04-01T09:07:53;100049.81;;;6.95;93.49
4273;BME280;63887;53.656;9.810;2023-04-01T09:10:52;100058.22;;;6.84;94.44
4273;BME280;63887;53.656;9.810;2023-04-01T09:13:43;100057.28;;;7.03;93.84
4273;BME280;63887;53.656;9.810;2023-04-01T09:19:16;100066.09;;;7.00;93.96
4273;BME280;63887;53.656;9.810;2023-04-01T09:22:05;100069.38;;;7.04;94.11
4273;BME280;63887;53.656;9.810;2023-04-01T09:24:42;100087.72;;;7.02;92.86
4273;BME280;63887;53.656;9.810;2023-04-01T09:27:26;100090.47;;;6.82;93.37
4273;BME280;63887;53.656;9.810;2023-04-01T09:33:21;100090.72;;;6.77;91.43
4273;BME280;63887;53.656;9.810;2023-04-01T09:36:04;100104.75;;;6.92;93.70
4273;BME280;63887;53.656;9.810;2023-04-01T09:38:40;100113.88;;;7.01;92.59
4273;BME280;63887;53.656;9.810;2023-04-01T09:41:24;100108.66;;;7.01;90.78
4273;BME280;63887;53.656;9.810;2023-04-01T09:44:04;100112.38;;;7.12;91.68
4273;BME280;63887;53.656;9.810;2023-04-01T09:46:50;100123.31;;;7.03;91.20
4273;BME280;63887;53.656;9.810;2023-04-01T09:49:43;100120.63;;;6.87;92.78
4273;BME280;63887;53.656;9.810;2023-04-01T09:52:22;100120.00;;;7.00;91.29
4273;BME280;63887;53.656;9.810;2023-04-01T09:55:01;100122.31;;;7.06;91.02
4273;BME280;63887;53.656;9.810;2023-04-01T09:57:54;100129.88;;;7.10;90.77
4273;BME280;63887;53.656;9.810;2023-04-01T10:00:37;100134.34;;;7.08;91.34
4273;BME280;63887;53.656;9.810;2023-04-01T10:06:27;100148.44;;;6.87;89.88
4273;BME280;63887;53.656;9.810;2023-04-01T10:12:45;100144.53;;;6.78;91.96
4273;BME280;63887;53.656;9.810;2023-04-01T10:15:43;100153.84;;;7.01;90.54
4273;BME280;63887;53.656;9.810;2023-04-01T10:21:42;100156.97;;;6.91;91.34
4273;BME280;63887;53.656;9.810;2023-04-01T10:24:40;100160.97;;;7.15;91.80
4273;BME280;63887;53.656;9.810;2023-04-01T10:27:33;100165.78;;;7.23;88.48
4273;BME280;63887;53.656;9.810;2023-04-01T10:30:52;100177.81;;;7.25;88.51
4273;BME280;63887;53.656;9.810;2023-04-01T10:36:47;100179.22;;;7.32;89.56
4273;BME280;63887;53.656;9.810;2023-04-01T10:42:43;100181.75;;;7.34;90.39
4273;BME280;63887;53.656;9.810;2023-04-01T10:45:44;100183.13;;;7.24;90.19
4273;BME280;63887;53.656;9.810;2023-04-01T10:48:38;100184.47;;;6.96;91.70
4273;BME280;63887;53.656;9.810;2023-04-01T10:51:16;100193.16;;;7.14;89.50
4273;BME280;63887;53.656;9.810;2023-04-01T10:54:09;100195.25;;;7.25;90.96
4273;BME280;63887;53.656;9.810;2023-04-01T10:56:50;100207.59;;;7.21;89.22
4273;BME280;63887;53.656;9.810;2023-04-01T10:59:49;100197.53;;;7.13;92.67
4273;BME280;63887;53.656;9.810;2023-04-01T11:02:57;100206.66;;;7.39;89.45
4273;BME280;63887;53.656;9.810;2023-04-01T11:06:11;100217.88;;;7.24;90.78
4273;BME280;63887;53.656;9.810;2023-04-01T11:12:23;100232.31;;;7.31;89.53
4273;BME280;63887;53.656;9.810;2023-04-01T11:15:18;100218.88;;;7.39;88.92
4273;BME280;63887;53.656;9.810;2023-04-01T11:18:08;100224.41;;;7.33;88.76
4273;BME280;63887;53.656;9.810;2023-04-01T11:21:12;100232.16;;;7.34;90.08
4273;BME280;63887;53.656;9.810;2023-04-01T11:23:58;100238.91;;;7.56;88.50
4273;BME280;63887;53.656;9.810;2023-04-01T11:26:33;100246.50;;;7.43;88.79
4273;BME280;63887;53.656;9.810;2023-04-01T11:29:22;100259.69;;;7.23;88.29
4273;BME280;63887;53.656;9.810;2023-04-01T11:31:55;100260.59;;;7.22;87.84
4273;BME280;63887;53.656;9.810;2023-04-01T11:34:36;100258.16;;;7.18;88.02
4273;BME280;63887;53.656;9.810;2023-04-01T11:37:13;100251.91;;;7.04;88.34
4273;BME280;63887;53.656;9.810;2023-04-01T11:39:54;100263.28;;;7.03;88.57
4273;BME280;63887;53.656;9.810;2023-04-01T11:42:32;100266.44;;;6.91;89.82
4273;BME280;63887;53.656;9.810;2023-04-01T11:45:12;100277.31;;;7.00;89.01
4273;BME280;63887;53.656;9.810;2023-04-01T11:48:00;100281.13;;;7.10;88.40
4273;BME280;63887;53.656;9.810;2023-04-01T11:50:41;100288.63;;;6.99;88.42
4273;BME280;63887;53.656;9.810;2023-04-01T11:53:18;100299.44;;;6.92;89.82
4273;BME280;63887;53.656;9.810;2023-04-01T11:56:01;100285.63;;;6.90;90.28
4273;BME280;63887;53.656;9.810;2023-04-01T12:01:36;100305.53;;;7.09;88.96
4273;BME280;63887;53.656;9.810;2023-04-01T12:04:24;100307.59;;;7.03;88.98
4273;BME280;63887;53.656;9.810;2023-04-01T12:07:02;100307.59;;;7.03;89.70
4273;BME280;63887;53.656;9.810;2023-04-01T12:09:35;100308.78;;;6.96;89.97
4273;BME280;63887;53.656;9.810;2023-04-01T12:12:12;100318.09;;;7.01;89.31
4273;BME280;63887;53.656;9.810;2023-04-01T12:14:53;100323.94;;;6.87;90.94
4273;BME280;63887;53.656;9.810;2023-04-01T12:17:37;100324.28;;;6.99;90.17
4273;BME280;63887;53.656;9.810;2023-04-01T12:20:26;100332.38;;;7.11;90.93
4273;BME280;63887;53.656;9.810;2023-04-01T12:22:59;100341.81;;;7.14;89.63
4273;BME280;63887;53.656;9.810;2023-04-01T12:25:44;100342.50;;;7.00;89.52
4273;BME280;63887;53.656;9.810;2023-04-01T12:28:21;100350.09;;;7.05;88.50
4273;BME280;63887;53.656;9.810;2023-04-01T12:30:55;100347.31;;;7.08;87.53
4273;BME280;63887;53.656;9.810;2023-04-01T12:33:50;100356.72;;;6.93;87.65
4273;BME280;63887;53.656;9.810;2023-04-01T12:36:26;100363.25;;;6.83;87.30
4273;BME280;63887;53.656;9.810;2023-04-01T12:39:17;100384.53;;;6.74;87.25
4273;BME280;63887;53.656;9.810;2023-04-01T12:41:54;100366.53;;;6.68;86.22
4273;BME280;63887;53.656;9.810;2023-04-01T12:44:39;100371.69;;;6.69;87.56
4273;BME280;63887;53.656;9.810;2023-04-01T12:47:27;100379.03;;;6.80;87.69
4273;BME280;63887;53.656;9.810;2023-04-01T12:50:29;100388.47;;;6.64;87.29
4273;BME280;63887;53.656;9.810;2023-04-01T12:53:18;100392.00;;;6.42;87.88
4273;BME280;63887;53.656;9.810;2023-04-01T12:55:48;100389.13;;;6.48;88.08
4273;BME280;63887;53.656;9.810;2023-04-01T12:58:53;100404.31;;;6.59;87.07
4273;BME280;63887;53.656;9.810;2023-04-01T13:01:30;100413.34;;;6.71;86.43
4273;BME280;63887;53.656;9.810;2023-04-01T13:07:18;100414.50;;;6.64;86.54
4273;BME280;63887;53.656;9.810;2023-04-01T13:09:53;100413.00;;;6.78;86.83
4273;BME280;63887;53.656;9.810;2023-04-01T13:12:36;100435.22;;;6.67;85.62
4273;BME280;63887;53.656;9.810;2023-04-01T13:15:15;100429.19;;;6.46;86.76
4273;BME280;63887;53.656;9.810;2023-04-01T13:17:52;100428.34;;;6.45;86.93
4273;BME280;63887;53.656;9.810;2023-04-01T13:20:28;100431.53;;;6.52;85.76
4273;BME280;63887;53.656;9.810;2023-04-01T13:23:09;100436.41;;;6.60;85.59
4273;BME280;63887;53.656;9.810;2023-04-01T13:25:43;100434.78;;;6.37;86.48
4273;BME280;63887;53.656;9.810;2023-04-01T13:28:16;100443.44;;;6.37;85.50
4273;BME280;63887;53.656;9.810;2023-04-01T13:30:49;100446.19;;;6.34;85.99
4273;BME280;63887;53.656;9.810;2023-04-01T13:33:25;100463.06;;;6.25;85.69
4273;BME280;63887;53.656;9.810;2023-04-01T13:36:01;100463.16;;;6.22;85.96
4273;BME280;63887;53.656;9.810;2023-04-01T13:39:08;100466.53;;;6.24;87.23
4273;BME280;63887;53.656;9.810;2023-04-01T13:41:53;100473.00;;;6.16;86.59
4273;BME280;63887;53.656;9.810;2023-04-01T13:44:28;100468.19;;;6.27;85.46
4273;BME280;63887;53.656;9.810;2023-04-01T13:47:23;100476.38;;;6.38;84.95
4273;BME280;63887;53.656;9.810;2023-04-01T13:52:55;100475.16;;;6.26;84.65
4273;BME280;63887;53.656;9.810;2023-04-01T13:55:39;100486.44;;;6.47;84.41
4273;BME280;63887;53.656;9.810;2023-04-01T13:58:23;100489.34;;;6.40;84.17
4273;BME280;63887;53.656;9.810;2023-04-01T14:00:56;100494.75;;;6.35;85.17
4273;BME280;63887;53.656;9.810;2023-04-01T14:03:41;100495.16;;;6.46;85.79
4273;BME280;63887;53.656;9.810;2023-04-01T14:06:17;100493.94;;;6.55;85.64
4273;BME280;63887;53.656;9.810;2023-04-01T14:09:11;100507.28;;;6.47;83.58
4273;BME280;63887;53.656;9.810;2023-04-01T14:11:52;100523.63;;;6.31;84.45
4273;BME280;63887;53.656;9.810;2023-04-01T14:14:29;100516.16;;;6.21;85.04
4273;BME280;63887;53.656;9.810;2023-04-01T14:20:22;100526.09;;;6.34;85.13
4273;BME280;63887;53.656;9.810;2023-04-01T14:23:03;100530.47;;;6.53;85.04
4273;BME280;63887;53.656;9.810;2023-04-01T14:28:33;100541.16;;;6.47;84.32
4273;BME280;63887;53.656;9.810;2023-04-01T14:31:27;100545.53;;;6.47;84.72
4273;BME280;63887;53.656;9.810;2023-04-01T14:34:04;100563.78;;;6.25;85.49
4273;BME280;63887;53.656;9.810;2023-04-01T14:36:43;100557.53;;;6.29;84.67
4273;BME280;63887;53.656;9.810;2023-04-01T14:39:26;100552.97;;;6.34;84.25
4273;BME280;63887;53.656;9.810;2023-04-01T14:42:09;100555.41;;;6.17;84.85
4273;BME280;63887;53.656;9.810;2023-04-01T14:44:56;100563.09;;;6.42;86.09
4273;BME280;63887;53.656;9.810;2023-04-01T14:47:38;100568.03;;;6.27;83.93